createdAt,value
2022-12-08T00:03:17.619Z,100970.69
2022-12-08T00:08:39.238Z,100965.78
2022-12-08T00:13:42.943Z,100962.50
2022-12-08T00:18:45.564Z,100955.94
2022-12-08T00:23:50.226Z,100953.19
2022-12-08T00:28:55.974Z,100949.34
2022-12-08T00:34:00.728Z,100941.72
2022-12-08T00:39:03.251Z,100941.97
2022-12-08T00:44:09.763Z,100933.50
2022-12-08T00:49:11.950Z,100935.69
2022-12-08T00:54:17.043Z,100923.66
2022-12-08T00:59:24.028Z,100911.09
2022-12-08T01:04:39.701Z,100910.03
2022-12-08T01:09:41.633Z,100898.56
2022-12-08T01:14:45.606Z,100911.09
2022-12-08T01:19:50.811Z,100906.72
2022-12-08T01:24:55.053Z,100901.00
2022-12-08T01:30:00.186Z,100890.34
2022-12-08T01:35:09.762Z,100895.22
2022-12-08T01:40:15.113Z,100888.13
2022-12-08T01:45:58.235Z,100883.19
2022-12-08T01:51:05.382Z,100895.19
2022-12-08T01:56:13.744Z,100877.47
2022-12-08T02:05:25.033Z,100878.81
2022-12-08T02:10:33.915Z,100873.34
2022-12-08T02:16:24.678Z,100885.88
2022-12-08T02:21:58.089Z,100884.78
2022-12-08T02:27:26.628Z,100891.84
2022-12-08T02:33:07.725Z,100891.84
2022-12-08T02:38:54.223Z,100890.69
2022-12-08T02:44:32.225Z,100874.88
2022-12-08T02:49:40.136Z,100865.06
2022-12-08T02:54:46.307Z,100861.78
2022-12-08T03:00:36.268Z,100856.31
2022-12-08T03:06:17.625Z,100862.31
2022-12-08T03:11:31.207Z,100858.50
2022-12-08T03:16:42.879Z,100853.59
2022-12-08T03:21:53.006Z,100855.25
2022-12-08T03:27:19.878Z,100846.81
2022-12-08T03:32:47.938Z,100833.47
2022-12-08T03:37:53.536Z,100832.94
2022-12-08T03:43:04.512Z,100819.31
2022-12-08T03:48:11.040Z,100810.03
2022-12-08T03:53:13.936Z,100800.22
2022-12-08T03:58:21.029Z,100795.84
2022-12-08T04:03:23.524Z,100786.03
2022-12-08T04:08:28.217Z,100781.66
2022-12-08T04:13:33.647Z,100776.47
2022-12-08T04:18:44.683Z,100766.91
2022-12-08T04:23:49.282Z,100788.44
2022-12-08T04:28:51.980Z,100795.78
2022-12-08T04:34:00.316Z,100787.03
2022-12-08T04:39:06.845Z,100794.66
2022-12-08T04:44:11.837Z,100799.03
2022-12-08T04:49:13.664Z,100794.09
2022-12-08T04:54:18.143Z,100796.28
2022-12-08T04:59:21.921Z,100793.00
2022-12-08T05:04:28.719Z,100778.00
2022-12-08T05:13:41.602Z,100768.72
2022-12-08T05:33:25.597Z,100760.78
2022-12-08T05:38:27.516Z,100759.13
2022-12-08T05:43:29.567Z,100749.59
2022-12-08T05:48:31.574Z,100761.56
2022-12-08T05:53:33.504Z,100763.44
2022-12-08T05:58:35.370Z,100777.31
2022-12-08T06:03:37.240Z,100788.47
2022-12-08T06:08:39.207Z,100799.66
2022-12-08T06:13:41.091Z,100794.72
2022-12-08T06:18:45.845Z,100786.28
2022-12-08T06:23:52.596Z,100783.84
2022-12-08T06:28:54.611Z,100793.41
2022-12-08T06:33:56.539Z,100795.63
2022-12-08T06:38:59.986Z,100790.47
2022-12-08T06:44:01.989Z,100783.94
2022-12-08T06:49:03.945Z,100783.41
2022-12-08T06:54:06.108Z,100775.50
2022-12-08T06:59:07.962Z,100769.25
2022-12-08T07:04:09.944Z,100768.44
2022-12-08T07:09:12.038Z,100776.38
2022-12-08T07:14:14.065Z,100778.81
2022-12-08T07:19:18.562Z,100754.03
2022-12-08T07:24:20.616Z,100770.66
2022-12-08T07:29:26.215Z,100765.22
2022-12-08T07:34:28.528Z,100765.75
2022-12-08T07:39:30.933Z,100757.84
2022-12-08T07:44:35.961Z,100773.41
2022-12-08T07:49:41.558Z,100778.84
2022-12-08T07:54:43.568Z,100772.31
2022-12-08T07:59:45.530Z,100779.13
2022-12-08T08:04:50.881Z,100772.31
2022-12-08T08:09:54.742Z,100765.25
2022-12-08T08:14:57.055Z,100770.72
2022-12-08T08:19:59.515Z,100762.31
2022-12-08T08:25:01.490Z,100758.22
2022-12-08T08:30:04.821Z,100751.13
2022-12-08T08:35:11.953Z,100741.34
2022-12-08T08:40:14.123Z,100737.94
2022-12-08T08:45:16.236Z,100742.94
2022-12-08T08:50:18.329Z,100745.06
2022-12-08T08:55:29.665Z,100745.78
2022-12-08T09:00:35.231Z,100746.56
2022-12-08T09:05:42.084Z,100739.81
2022-12-08T09:10:44.560Z,100735.13
2022-12-08T09:15:47.510Z,100739.31
2022-12-08T09:20:49.534Z,100738.91
2022-12-08T09:25:51.550Z,100739.50
2022-12-08T09:30:53.634Z,100740.81
2022-12-08T09:35:55.784Z,100741.19
2022-12-08T09:40:58.094Z,100740.69
2022-12-08T09:46:01.812Z,100732.94
2022-12-08T09:51:05.610Z,100730.53
2022-12-08T09:56:21.972Z,100727.22
2022-12-08T10:01:29.056Z,100722.34
2022-12-08T10:06:41.668Z,100719.09
2022-12-08T10:12:20.987Z,100712.13
2022-12-08T10:17:34.588Z,100712.97
2022-12-08T10:22:41.268Z,100708.97
2022-12-08T10:27:51.538Z,100700.81
2022-12-08T10:32:59.064Z,100694.00
2022-12-08T10:38:01.772Z,100692.28
2022-12-08T10:43:05.980Z,100688.78
2022-12-08T10:48:16.774Z,100694.06
2022-12-08T10:53:30.452Z,100689.91
2022-12-08T10:58:37.230Z,100686.88
2022-12-08T11:03:45.426Z,100674.69
2022-12-08T11:08:58.816Z,100665.50
2022-12-08T11:14:08.090Z,100657.94
2022-12-08T11:19:16.353Z,100652.22
2022-12-08T11:24:29.257Z,100642.97
2022-12-08T11:29:37.645Z,100643.25
2022-12-08T11:34:52.151Z,100632.88
2022-12-08T11:39:58.286Z,100631.59
2022-12-08T11:45:07.804Z,100608.88
2022-12-08T11:50:29.764Z,100603.38
2022-12-08T11:55:48.136Z,100592.13
2022-12-08T12:00:51.716Z,100588.28
2022-12-08T12:06:53.009Z,100565.53
2022-12-08T12:12:20.764Z,100554.28
2022-12-08T12:17:51.141Z,100543.34
2022-12-08T12:23:01.696Z,100540.28
2022-12-08T12:28:08.049Z,100526.88
2022-12-08T12:33:16.494Z,100524.16
2022-12-08T12:38:54.593Z,100518.44
2022-12-08T12:44:15.338Z,100512.19
2022-12-08T12:49:43.990Z,100505.75
2022-12-08T12:54:52.586Z,100503.16
2022-12-08T13:00:05.046Z,100490.16
2022-12-08T13:05:27.449Z,100467.25
2022-12-08T13:10:33.959Z,100462.44
2022-12-08T13:15:41.962Z,100459.25
2022-12-08T13:20:50.605Z,100456.00
2022-12-08T13:26:08.029Z,100448.88
2022-12-08T13:31:48.551Z,100438.75
2022-12-08T13:36:52.831Z,100427.81
2022-12-08T13:42:02.747Z,100431.06
2022-12-08T13:47:32.942Z,100428.09
2022-12-08T13:57:59.575Z,100416.16
2022-12-08T14:03:02.460Z,100410.47
2022-12-08T14:08:30.056Z,100406.16
2022-12-08T14:13:37.934Z,100380.19
2022-12-08T14:18:40.150Z,100371.56
2022-12-08T14:23:44.346Z,100349.00
2022-12-08T14:28:49.780Z,100363.25
2022-12-08T14:33:56.369Z,100354.31
2022-12-08T14:38:59.153Z,100344.50
2022-12-08T14:44:02.361Z,100332.00
2022-12-08T14:49:04.488Z,100336.94
2022-12-08T14:54:13.491Z,100331.50
2022-12-08T14:59:30.553Z,100335.69
2022-12-08T15:04:32.901Z,100331.88
2022-12-08T15:09:34.995Z,100324.50
2022-12-08T15:14:41.958Z,100324.56
2022-12-08T15:19:58.566Z,100325.91
2022-12-08T15:25:01.073Z,100330.06
2022-12-08T15:30:03.597Z,100325.22
2022-12-08T15:35:06.679Z,100324.72
2022-12-08T15:40:17.993Z,100307.81
2022-12-08T15:45:26.456Z,100299.06
2022-12-08T15:50:28.491Z,100293.03
2022-12-08T15:55:33.087Z,100277.19
2022-12-08T16:00:52.401Z,100282.34
2022-12-08T16:06:44.282Z,100285.03
2022-12-08T16:12:05.305Z,100277.59
2022-12-08T16:17:03.221Z,100290.13
2022-12-08T16:28:05.234Z,100256.72
2022-12-08T16:33:15.022Z,100249.00
2022-12-08T16:38:17.010Z,100250.28
2022-12-08T16:43:19.386Z,100242.88
2022-12-08T16:48:22.623Z,100240.59
2022-12-08T16:53:24.837Z,100225.00
2022-12-08T16:58:28.125Z,100220.06
2022-12-08T17:03:35.958Z,100218.97
2022-12-08T17:08:38.915Z,100213.50
2022-12-08T17:13:41.975Z,100197.91
2022-12-08T17:18:44.269Z,100197.88
2022-12-08T17:23:46.792Z,100203.06
2022-12-08T17:29:04.033Z,100189.69
2022-12-08T17:34:11.083Z,100196.78
2022-12-08T17:39:18.481Z,100178.75
2022-12-08T17:44:21.233Z,100193.22
2022-12-08T17:49:25.738Z,100215.91
2022-12-08T17:54:29.013Z,100192.13
2022-12-08T17:59:31.412Z,100196.19
2022-12-08T18:04:33.387Z,100205.44
2022-12-08T18:09:35.396Z,100205.13
2022-12-08T18:15:02.399Z,100210.25
2022-12-08T18:20:05.766Z,100205.00
2022-12-08T18:25:08.994Z,100198.13
2022-12-08T18:30:17.852Z,100193.78
2022-12-08T18:35:20.009Z,100187.78
2022-12-08T18:40:22.581Z,100185.34
2022-12-08T18:45:24.794Z,100173.59
2022-12-08T18:50:26.601Z,100163.25
2022-12-08T18:55:31.386Z,100170.94
2022-12-08T19:00:42.642Z,100180.25
2022-12-08T19:05:44.741Z,100177.00
2022-12-08T19:10:46.726Z,100158.44
2022-12-08T19:15:48.819Z,100156.31
2022-12-08T19:20:56.912Z,100133.09
2022-12-08T19:25:59.246Z,100131.88
2022-12-08T19:31:05.384Z,100117.53
2022-12-08T19:36:13.753Z,100108.97
2022-12-08T19:41:34.863Z,100118.88
2022-12-08T19:46:40.367Z,100112.97
2022-12-08T19:51:42.965Z,100109.72
2022-12-08T19:56:45.059Z,100106.47
2022-12-08T20:01:54.003Z,100090.19
2022-12-08T20:06:59.334Z,100099.25
2022-12-08T20:12:01.287Z,100112.66
2022-12-08T20:17:03.286Z,100116.53
2022-12-08T20:22:09.080Z,100106.16
2022-12-08T20:27:11.141Z,100109.97
2022-12-08T20:32:13.287Z,100104.53
2022-12-08T20:37:15.420Z,100126.34
2022-12-08T20:42:25.140Z,100121.41
2022-12-08T20:47:27.417Z,100113.75
2022-12-08T20:52:29.376Z,100108.31
2022-12-08T20:57:31.515Z,100111.56
2022-12-08T21:02:33.744Z,100107.19
2022-12-08T21:07:36.000Z,100099.81
2022-12-08T21:12:38.033Z,100098.44
2022-12-08T21:17:40.104Z,100099.78
2022-12-08T21:22:46.784Z,100098.91
2022-12-08T21:27:48.972Z,100085.78
2022-12-08T21:32:51.118Z,100078.13
2022-12-08T21:37:53.272Z,100093.91
2022-12-08T21:42:55.423Z,100101.00
2022-12-08T21:47:59.532Z,100101.00
2022-12-08T21:53:03.481Z,100092.28
2022-12-08T21:58:05.945Z,100096.94
2022-12-08T22:03:13.075Z,100102.41
2022-12-08T22:08:15.361Z,100093.91
2022-12-08T22:13:17.486Z,100083.22
2022-12-08T22:18:19.611Z,100068.66
2022-12-08T22:23:21.711Z,100047.19
2022-12-08T22:28:23.606Z,100058.00
2022-12-08T22:33:25.638Z,100095.28
2022-12-08T22:38:31.126Z,100096.53
2022-12-08T22:43:34.636Z,100084.44
2022-12-08T22:48:40.089Z,100098.06
2022-12-08T22:53:42.397Z,100092.00
2022-12-08T22:58:44.539Z,100082.72
2022-12-08T23:03:46.941Z,100077.25
2022-12-08T23:08:49.429Z,100059.16
2022-12-08T23:13:52.232Z,100041.06
2022-12-08T23:18:54.542Z,100024.09
2022-12-08T23:23:56.719Z,99995.97
2022-12-08T23:28:59.566Z,99991.88
2022-12-08T23:34:04.487Z,99976.38
2022-12-08T23:39:06.847Z,99934.34
2022-12-08T23:44:11.996Z,99916.66
2022-12-08T23:49:14.743Z,99911.22
2022-12-08T23:54:17.095Z,99906.97
2022-12-08T23:59:18.865Z,99899.38
